createdAt,value
2022-08-09T00:01:48.401Z,101023.72
2022-08-09T00:04:33.957Z,101020.34
2022-08-09T00:07:07.664Z,101022.03
2022-08-09T00:09:38.817Z,101017.41
2022-08-09T00:12:07.142Z,101015.41
2022-08-09T00:14:38.194Z,101014.59
2022-08-09T00:17:06.208Z,101018.78
2022-08-09T00:19:34.092Z,101021.13
2022-08-09T00:22:04.328Z,101019.00
2022-08-09T00:24:32.565Z,101016.75
2022-08-09T00:27:00.302Z,101032.03
2022-08-09T00:30:10.119Z,101024.09
2022-08-09T00:32:26.759Z,101031.00
2022-08-09T00:34:55.463Z,101028.47
2022-08-09T00:37:24.427Z,101028.81
2022-08-09T00:40:12.230Z,101030.97
2022-08-09T00:44:15.389Z,101033.47
2022-08-09T00:45:26.765Z,101034.63
2022-08-09T00:47:55.516Z,101037.00
2022-08-09T00:50:23.493Z,101040.91
2022-08-09T00:52:52.832Z,101039.22
2022-08-09T00:56:03.831Z,101046.69
2022-08-09T00:58:09.249Z,101043.97
2022-08-09T01:00:44.257Z,101052.06
2022-08-09T01:03:17.018Z,101043.28
2022-08-09T01:05:54.561Z,101045.66
2022-08-09T01:08:32.206Z,101039.56
2022-08-09T01:11:15.271Z,101048.38
2022-08-09T01:13:59.234Z,101046.66
2022-08-09T01:16:32.980Z,101044.97
2022-08-09T01:19:04.379Z,101042.09
2022-08-09T01:21:51.350Z,101037.72
2022-08-09T01:24:34.961Z,101040.75
2022-08-09T01:27:08.060Z,101042.78
2022-08-09T01:29:56.386Z,101047.34
2022-08-09T01:32:34.105Z,101046.84
2022-08-09T01:35:28.269Z,101036.34
2022-08-09T01:38:10.222Z,101051.38
2022-08-09T01:40:52.839Z,101045.66
2022-08-09T01:43:50.721Z,101049.19
2022-08-09T01:46:25.001Z,101046.81
2022-08-09T01:48:57.341Z,101055.78
2022-08-09T01:51:32.117Z,101045.66
2022-08-09T01:54:02.104Z,101051.69
2022-08-09T01:56:35.086Z,101054.59
2022-08-09T01:59:09.317Z,101052.25
2022-08-09T02:01:57.891Z,101059.31
2022-08-09T02:04:28.527Z,101058.47
2022-08-09T02:06:59.090Z,101049.59
2022-08-09T02:09:42.551Z,101062.56
2022-08-09T02:12:17.996Z,101053.19
2022-08-09T02:14:52.959Z,101057.69
2022-08-09T02:17:59.545Z,101059.88
2022-08-09T02:20:15.911Z,101061.31
2022-08-09T02:23:03.024Z,101055.59
2022-08-09T02:25:42.346Z,101056.09
2022-08-09T02:28:18.077Z,101057.13
2022-08-09T02:30:51.736Z,101052.38
2022-08-09T02:33:38.188Z,101048.47
2022-08-09T02:36:16.145Z,101052.19
2022-08-09T02:38:49.912Z,101047.88
2022-08-09T02:41:32.636Z,101045.38
2022-08-09T02:44:13.749Z,101045.69
2022-08-09T02:46:59.928Z,101045.81
2022-08-09T02:49:40.945Z,101047.84
2022-08-09T02:52:13.615Z,101054.94
2022-08-09T02:54:54.637Z,101045.19
2022-08-09T02:57:24.995Z,101053.63
2022-08-09T03:00:25.639Z,101050.78
2022-08-09T03:02:59.827Z,101039.47
2022-08-09T03:05:31.632Z,101045.81
2022-08-09T03:08:03.968Z,101041.97
2022-08-09T03:10:34.816Z,101038.63
2022-08-09T03:13:03.251Z,101040.06
2022-08-09T03:16:04.727Z,101044.72
2022-08-09T03:18:31.043Z,101047.13
2022-08-09T03:21:00.458Z,101047.84
2022-08-09T03:23:29.310Z,101053.16
2022-08-09T03:26:03.760Z,101047.97
2022-08-09T03:28:33.889Z,101052.38
2022-08-09T03:31:10.203Z,101050.69
2022-08-09T03:33:54.315Z,101054.75
2022-08-09T03:36:27.277Z,101048.19
2022-08-09T03:38:56.578Z,101058.47
2022-08-09T03:41:29.858Z,101058.16
2022-08-09T03:44:12.215Z,101061.19
2022-08-09T03:46:39.617Z,101055.75
2022-08-09T03:49:09.831Z,101063.38
2022-08-09T03:51:56.287Z,101063.69
2022-08-09T03:54:29.793Z,101060.50
2022-08-09T03:57:02.101Z,101065.91
2022-08-09T03:59:53.251Z,101078.53
2022-08-09T04:02:26.690Z,101069.09
2022-08-09T04:05:00.871Z,101072.28
2022-08-09T04:07:47.695Z,101071.38
2022-08-09T04:10:20.501Z,101062.84
2022-08-09T04:12:49.749Z,101057.94
2022-08-09T04:15:39.083Z,101062.16
2022-08-09T04:18:07.634Z,101058.72
2022-08-09T04:20:36.475Z,101064.47
2022-08-09T04:23:03.850Z,101063.81
2022-08-09T04:25:37.837Z,101067.13
2022-08-09T04:28:05.484Z,101073.19
2022-08-09T04:30:32.922Z,101077.28
2022-08-09T04:33:01.270Z,101075.13
2022-08-09T04:35:29.443Z,101067.47
2022-08-09T04:38:03.680Z,101075.41
2022-08-09T04:40:36.174Z,101077.94
2022-08-09T04:43:04.095Z,101071.69
2022-08-09T04:45:35.748Z,101074.16
2022-08-09T04:48:10.750Z,101087.09
2022-08-09T04:50:38.386Z,101085.94
2022-08-09T04:53:07.168Z,101082.72
2022-08-09T04:55:57.523Z,101093.53
2022-08-09T04:58:26.271Z,101093.69
2022-08-09T05:00:54.441Z,101092.44
2022-08-09T05:03:41.305Z,101102.44
2022-08-09T05:06:11.228Z,101098.06
2022-08-09T05:08:43.910Z,101110.53
2022-08-09T05:11:15.632Z,101105.16
2022-08-09T05:13:43.125Z,101103.41
2022-08-09T05:16:10.666Z,101102.97
2022-08-09T05:18:58.643Z,101101.59
2022-08-09T05:21:30.130Z,101109.34
2022-08-09T05:24:02.124Z,101108.06
2022-08-09T05:26:37.081Z,101104.41
2022-08-09T05:29:17.389Z,101104.13
2022-08-09T05:31:47.534Z,101105.88
2022-08-09T05:34:19.636Z,101109.22
2022-08-09T05:36:47.549Z,101114.53
2022-08-09T05:39:28.590Z,101117.03
2022-08-09T05:42:01.497Z,101118.69
2022-08-09T05:44:32.621Z,101121.84
2022-08-09T05:47:00.922Z,101110.94
2022-08-09T05:50:11.036Z,101122.09
2022-08-09T05:52:20.390Z,101119.53
2022-08-09T05:54:49.359Z,101121.91
2022-08-09T05:57:19.309Z,101117.91
2022-08-09T05:59:47.179Z,101128.25
2022-08-09T06:02:16.952Z,101120.31
2022-08-09T06:04:46.300Z,101123.75
2022-08-09T06:07:21.294Z,101122.75
2022-08-09T06:09:54.643Z,101125.94
2022-08-09T06:12:30.136Z,101125.84
2022-08-09T06:15:01.045Z,101127.94
2022-08-09T06:17:40.250Z,101126.50
2022-08-09T06:20:09.361Z,101125.75
2022-08-09T06:22:37.026Z,101125.59
2022-08-09T06:25:08.600Z,101130.00
2022-08-09T06:27:41.385Z,101129.84
2022-08-09T06:30:14.262Z,101128.78
2022-08-09T06:33:00.136Z,101136.97
2022-08-09T06:35:55.715Z,101141.38
2022-08-09T06:38:18.289Z,101137.44
2022-08-09T06:40:48.386Z,101144.13
2022-08-09T06:43:22.294Z,101143.91
2022-08-09T06:46:08.030Z,101145.97
2022-08-09T06:48:42.840Z,101145.94
2022-08-09T06:51:11.600Z,101144.88
2022-08-09T06:53:39.489Z,101142.53
2022-08-09T06:56:09.202Z,101135.97
2022-08-09T07:00:47.569Z,101139.13
2022-08-09T07:01:27.388Z,101145.16
2022-08-09T07:04:00.373Z,101148.63
2022-08-09T07:06:31.511Z,101155.03
2022-08-09T07:08:59.197Z,101150.94
2022-08-09T07:11:34.241Z,101157.91
2022-08-09T07:14:15.589Z,101163.16
2022-08-09T07:16:48.989Z,101163.53
2022-08-09T07:19:23.382Z,101155.25
2022-08-09T07:21:57.714Z,101159.38
2022-08-09T07:24:32.155Z,101160.88
2022-08-09T07:27:11.137Z,101165.69
2022-08-09T07:29:56.835Z,101161.53
2022-08-09T07:32:33.729Z,101165.47
2022-08-09T07:35:08.175Z,101163.50
2022-08-09T07:37:43.457Z,101167.41
2022-08-09T07:40:17.701Z,101172.56
2022-08-09T07:42:55.625Z,101179.13
2022-08-09T07:45:38.007Z,101166.97
2022-08-09T07:48:28.531Z,101178.50
2022-08-09T07:51:09.309Z,101173.94
2022-08-09T07:54:04.462Z,101176.22
2022-08-09T07:56:32.484Z,101180.41
2022-08-09T07:59:01.350Z,101180.47
2022-08-09T08:01:33.151Z,101188.47
2022-08-09T08:04:02.358Z,101181.72
2022-08-09T08:06:32.133Z,101182.50
2022-08-09T08:09:05.058Z,101187.88
2022-08-09T08:12:10.351Z,101183.34
2022-08-09T08:14:24.274Z,101189.09
2022-08-09T08:17:07.658Z,101188.72
2022-08-09T08:19:36.743Z,101186.19
2022-08-09T08:22:04.888Z,101192.75
2022-08-09T08:24:35.313Z,101188.91
2022-08-09T08:27:16.735Z,101194.25
2022-08-09T08:29:50.086Z,101192.03
2022-08-09T08:32:29.018Z,101188.97
2022-08-09T08:34:58.840Z,101191.59
2022-08-09T08:37:41.467Z,101189.88
2022-08-09T08:40:15.464Z,101194.97
2022-08-09T08:42:46.993Z,101198.06
2022-08-09T08:45:37.350Z,101197.34
2022-08-09T08:48:06.043Z,101206.69
2022-08-09T08:50:33.885Z,101201.94
2022-08-09T08:53:03.980Z,101196.00
2022-08-09T08:55:32.206Z,101189.50
2022-08-09T08:57:59.973Z,101190.50
2022-08-09T09:00:34.294Z,101192.28
2022-08-09T09:03:11.385Z,101193.53
2022-08-09T09:05:58.105Z,101191.75
2022-08-09T09:08:40.512Z,101193.06
2022-08-09T09:11:17.863Z,101193.63
2022-08-09T09:13:57.587Z,101191.34
2022-08-09T09:16:34.213Z,101196.38
2022-08-09T09:22:05.034Z,101194.00
2022-08-09T09:24:37.855Z,101197.78
2022-08-09T09:27:07.625Z,101197.50
2022-08-09T09:30:14.038Z,101202.50
2022-08-09T09:32:34.808Z,101201.69
2022-08-09T09:35:09.186Z,101202.00
2022-08-09T09:37:40.576Z,101198.84
2022-08-09T09:40:11.742Z,101197.72
2022-08-09T09:42:46.089Z,101209.03
2022-08-09T09:45:14.444Z,101201.31
2022-08-09T09:47:58.331Z,101205.66
2022-08-09T09:50:49.363Z,101197.44
2022-08-09T09:53:20.838Z,101199.47
2022-08-09T09:56:03.857Z,101202.88
2022-08-09T09:58:45.420Z,101193.78
2022-08-09T10:01:37.378Z,101195.34
2022-08-09T10:04:16.211Z,101189.34
2022-08-09T10:06:58.890Z,101191.09
2022-08-09T10:09:46.459Z,101186.75
2022-08-09T10:12:29.440Z,101187.31
2022-08-09T10:15:07.745Z,101189.75
2022-08-09T10:17:56.582Z,101188.00
2022-08-09T10:20:35.631Z,101193.34
2022-08-09T10:23:20.415Z,101180.34
2022-08-09T10:26:06.836Z,101171.78
2022-08-09T10:28:38.874Z,101176.94
2022-08-09T10:34:10.344Z,101169.91
2022-08-09T10:36:47.813Z,101175.97
2022-08-09T10:39:18.285Z,101179.03
2022-08-09T10:41:46.200Z,101168.03
2022-08-09T10:44:18.137Z,101171.44
2022-08-09T10:47:20.435Z,101170.22
2022-08-09T10:50:02.213Z,101167.75
2022-08-09T10:52:47.910Z,101163.66
2022-08-09T10:55:20.829Z,101161.47
2022-08-09T10:57:51.980Z,101162.38
2022-08-09T11:01:35.884Z,101163.97
2022-08-09T11:03:50.195Z,101155.75
2022-08-09T11:06:23.006Z,101153.91
2022-08-09T11:08:53.263Z,101150.03
2022-08-09T11:11:22.429Z,101146.44
2022-08-09T11:14:31.822Z,101140.22
2022-08-09T11:16:59.872Z,101143.56
2022-08-09T11:20:11.311Z,101147.09
2022-08-09T11:23:00.827Z,101143.56
2022-08-09T11:25:48.477Z,101132.72
2022-08-09T11:28:56.477Z,101141.88
2022-08-09T11:31:49.287Z,101140.13
2022-08-09T11:34:27.425Z,101140.22
2022-08-09T11:36:56.809Z,101129.78
2022-08-09T11:39:25.565Z,101129.28
2022-08-09T11:42:14.657Z,101129.56
2022-08-09T11:44:47.149Z,101134.28
2022-08-09T11:47:15.902Z,101120.16
2022-08-09T11:50:52.485Z,101128.47
2022-08-09T11:53:44.000Z,101129.06
2022-08-09T11:56:41.945Z,101126.56
2022-08-09T11:59:24.801Z,101125.19
2022-08-09T12:02:16.930Z,101128.47
2022-08-09T12:04:46.195Z,101119.59
2022-08-09T12:07:14.315Z,101122.34
2022-08-09T12:09:43.996Z,101122.88
2022-08-09T12:12:20.302Z,101123.22
2022-08-09T12:15:07.205Z,101107.72
2022-08-09T12:17:42.848Z,101117.09
2022-08-09T12:20:16.813Z,101115.16
2022-08-09T12:22:53.191Z,101114.03
2022-08-09T12:25:36.742Z,101117.38
2022-08-09T12:29:15.035Z,101116.28
2022-08-09T12:30:58.817Z,101103.50
2022-08-09T12:33:50.833Z,101117.63
2022-08-09T12:36:27.667Z,101110.16
2022-08-09T12:39:01.753Z,101116.81
2022-08-09T12:41:36.389Z,101105.50
2022-08-09T12:44:10.026Z,101108.22
2022-08-09T12:46:43.365Z,101113.50
2022-08-09T12:49:18.061Z,101101.28
2022-08-09T12:52:00.689Z,101093.66
2022-08-09T12:55:03.290Z,101099.38
2022-08-09T12:57:38.594Z,101088.84
2022-08-09T13:00:17.106Z,101091.06
2022-08-09T13:02:54.078Z,101088.00
2022-08-09T13:05:25.310Z,101086.03
2022-08-09T13:08:13.878Z,101086.41
2022-08-09T13:10:52.107Z,101079.31
2022-08-09T13:13:38.102Z,101079.78
2022-08-09T13:16:19.653Z,101083.66
2022-08-09T13:18:53.516Z,101087.75
2022-08-09T13:22:36.846Z,101074.53
2022-08-09T13:24:42.617Z,101079.25
2022-08-09T13:26:58.822Z,101075.00
2022-08-09T13:29:28.561Z,101082.91
2022-08-09T13:32:15.470Z,101079.97
2022-08-09T13:34:47.221Z,101069.56
2022-08-09T13:37:24.766Z,101077.09
2022-08-09T13:41:50.417Z,101078.03
2022-08-09T13:42:50.663Z,101079.47
2022-08-09T13:45:18.653Z,101081.28
2022-08-09T13:47:51.254Z,101074.09
2022-08-09T13:50:30.516Z,101086.59
2022-08-09T13:52:59.307Z,101085.75
2022-08-09T13:55:29.182Z,101082.72
2022-08-09T13:57:58.288Z,101073.88
2022-08-09T14:00:28.634Z,101071.38
2022-08-09T14:03:03.864Z,101073.53
2022-08-09T14:06:00.527Z,101069.69
2022-08-09T14:08:30.698Z,101075.81
2022-08-09T14:11:01.233Z,101076.63
2022-08-09T14:14:22.539Z,101078.47
2022-08-09T14:16:19.978Z,101088.84
2022-08-09T14:18:58.099Z,101090.84
2022-08-09T14:21:29.273Z,101081.72
2022-08-09T14:23:57.725Z,101077.38
2022-08-09T14:26:34.000Z,101086.63
2022-08-09T14:29:08.364Z,101077.88
2022-08-09T14:31:54.569Z,101083.84
2022-08-09T14:34:31.536Z,101073.13
2022-08-09T14:37:06.779Z,101092.41
2022-08-09T14:39:40.461Z,101075.66
2022-08-09T14:42:40.577Z,101077.13
2022-08-09T14:46:39.731Z,101082.56
2022-08-09T14:47:57.534Z,101084.16
2022-08-09T14:50:27.275Z,101079.91
2022-08-09T14:52:56.482Z,101086.19
2022-08-09T14:55:25.485Z,101085.63
2022-08-09T14:57:56.972Z,101090.75
2022-08-09T15:00:25.109Z,101091.22
2022-08-09T15:02:54.456Z,101089.09
2022-08-09T15:05:25.960Z,101084.94
2022-08-09T15:07:58.188Z,101088.06
2022-08-09T15:10:26.089Z,101078.88
2022-08-09T15:12:53.994Z,101082.91
2022-08-09T15:15:22.312Z,101079.31
2022-08-09T15:17:52.704Z,101075.34
2022-08-09T15:21:55.401Z,101080.66
2022-08-09T15:24:02.412Z,101069.47
2022-08-09T15:25:58.621Z,101073.66
2022-08-09T15:28:28.302Z,101069.94
2022-08-09T15:31:07.283Z,101064.69
2022-08-09T15:34:18.007Z,101067.69
2022-08-09T15:36:29.040Z,101075.06
2022-08-09T15:38:59.813Z,101065.84
2022-08-09T15:41:31.660Z,101071.44
2022-08-09T15:44:00.428Z,101070.22
2022-08-09T15:46:34.399Z,101062.13
2022-08-09T15:49:20.623Z,101069.22
2022-08-09T15:52:03.147Z,101069.94
2022-08-09T15:54:46.297Z,101057.88
2022-08-09T15:57:19.260Z,101064.00
2022-08-09T16:00:06.269Z,101056.88
2022-08-09T16:02:33.889Z,101049.38
2022-08-09T16:05:02.455Z,101049.50
2022-08-09T16:07:51.040Z,101052.38
2022-08-09T16:10:38.796Z,101050.59
2022-08-09T16:13:20.887Z,101047.81
2022-08-09T16:16:10.586Z,101047.47
2022-08-09T16:18:44.610Z,101045.31
2022-08-09T16:21:17.176Z,101036.91
2022-08-09T16:23:55.506Z,101041.34
2022-08-09T16:26:35.316Z,101030.53
2022-08-09T16:29:11.588Z,101039.25
2022-08-09T16:32:19.669Z,101041.75
2022-08-09T16:34:29.259Z,101036.13
2022-08-09T16:36:57.124Z,101036.22
2022-08-09T16:39:25.882Z,101037.56
2022-08-09T16:42:02.562Z,101042.00
2022-08-09T16:44:32.222Z,101045.22
2022-08-09T16:47:04.095Z,101044.16
2022-08-09T16:50:30.302Z,101043.94
2022-08-09T16:52:35.961Z,101054.81
2022-08-09T16:55:04.108Z,101047.31
2022-08-09T16:58:08.769Z,101046.38
2022-08-09T17:00:24.565Z,101048.25
2022-08-09T17:02:52.349Z,101054.59
2022-08-09T17:05:24.822Z,101048.09
2022-08-09T17:08:46.216Z,101048.00
2022-08-09T17:10:59.826Z,101061.50
2022-08-09T17:13:34.472Z,101059.63
2022-08-09T17:16:02.653Z,101055.56
2022-08-09T17:18:30.486Z,101059.19
2022-08-09T17:20:57.829Z,101058.03
2022-08-09T17:24:21.121Z,101055.44
2022-08-09T17:26:13.263Z,101064.69
2022-08-09T17:28:45.904Z,101055.69
2022-08-09T17:31:15.921Z,101061.41
2022-08-09T17:33:43.552Z,101068.28
2022-08-09T17:36:11.029Z,101064.44
2022-08-09T17:38:43.522Z,101055.91
2022-08-09T17:41:37.639Z,101061.66
2022-08-09T17:44:38.852Z,101063.13
2022-08-09T17:46:57.726Z,101061.41
2022-08-09T17:49:25.532Z,101066.00
2022-08-09T17:51:57.735Z,101058.75
2022-08-09T17:54:29.539Z,101061.19
2022-08-09T17:56:57.465Z,101066.47
2022-08-09T17:59:37.917Z,101071.72
2022-08-09T18:02:11.266Z,101069.19
2022-08-09T18:04:43.345Z,101076.69
2022-08-09T18:07:11.540Z,101067.03
2022-08-09T18:10:04.420Z,101074.31
2022-08-09T18:12:40.907Z,101066.94
2022-08-09T18:15:21.971Z,101064.44
2022-08-09T18:18:09.639Z,101063.47
2022-08-09T18:21:10.370Z,101067.13
2022-08-09T18:24:09.446Z,101070.06
2022-08-09T18:26:27.878Z,101071.53
2022-08-09T18:30:39.248Z,101067.00
2022-08-09T18:31:54.932Z,101071.47
2022-08-09T18:34:24.014Z,101075.44
2022-08-09T18:36:53.470Z,101076.91
2022-08-09T18:39:21.024Z,101073.06
2022-08-09T18:41:52.821Z,101084.22
2022-08-09T18:44:25.548Z,101089.25
2022-08-09T18:47:07.365Z,101086.66
2022-08-09T18:49:43.466Z,101086.53
2022-08-09T18:52:18.729Z,101094.78
2022-08-09T18:54:53.431Z,101097.59
2022-08-09T18:57:22.801Z,101098.81
2022-08-09T18:59:58.836Z,101097.00
2022-08-09T19:02:32.636Z,101096.28
2022-08-09T19:05:04.441Z,101098.19
2022-08-09T19:07:59.313Z,101107.00
2022-08-09T19:10:37.082Z,101103.38
2022-08-09T19:13:17.227Z,101098.63
2022-08-09T19:15:50.202Z,101105.00
2022-08-09T19:18:35.191Z,101108.31
2022-08-09T19:21:09.191Z,101113.72
2022-08-09T19:24:37.669Z,101113.06
2022-08-09T19:26:30.989Z,101114.38
2022-08-09T19:29:02.466Z,101111.66
2022-08-09T19:31:45.532Z,101113.31
2022-08-09T19:34:22.104Z,101102.47
2022-08-09T19:36:52.195Z,101104.72
2022-08-09T19:39:43.600Z,101103.97
2022-08-09T19:42:08.381Z,101106.84
2022-08-09T19:44:36.011Z,101113.19
2022-08-09T19:47:03.394Z,101114.50
2022-08-09T19:50:06.570Z,101117.19
2022-08-09T19:52:20.477Z,101119.09
2022-08-09T19:54:57.252Z,101122.47
2022-08-09T19:57:26.603Z,101119.56
2022-08-09T20:00:05.465Z,101119.78
2022-08-09T20:04:10.092Z,101121.88
2022-08-09T20:05:24.912Z,101128.16
2022-08-09T20:07:59.398Z,101121.22
2022-08-09T20:10:34.780Z,101125.66
2022-08-09T20:13:06.361Z,101119.75
2022-08-09T20:16:35.537Z,101128.34
2022-08-09T20:18:22.092Z,101137.16
2022-08-09T20:20:55.285Z,101135.63
2022-08-09T20:23:23.920Z,101141.44
2022-08-09T20:26:06.832Z,101138.47
2022-08-09T20:28:47.971Z,101139.06
2022-08-09T20:31:16.329Z,101141.72
2022-08-09T20:33:44.882Z,101136.28
2022-08-09T20:36:14.006Z,101142.13
2022-08-09T20:41:32.102Z,101148.78
2022-08-09T20:44:02.744Z,101146.06
2022-08-09T20:46:42.293Z,101154.03
2022-08-09T20:49:12.933Z,101144.41
2022-08-09T20:51:42.496Z,101148.03
2022-08-09T20:54:16.690Z,101142.66
2022-08-09T20:56:47.199Z,101143.72
2022-08-09T20:59:17.598Z,101139.28
2022-08-09T21:01:53.563Z,101139.09
2022-08-09T21:05:51.261Z,101147.00
2022-08-09T21:07:14.014Z,101150.81
2022-08-09T21:09:45.905Z,101155.31
2022-08-09T21:15:12.418Z,101163.25
2022-08-09T21:18:22.356Z,101159.75
2022-08-09T21:20:30.370Z,101157.19
2022-08-09T21:23:00.498Z,101164.09
2022-08-09T21:25:38.145Z,101165.44
2022-08-09T21:28:06.452Z,101163.16
2022-08-09T21:30:37.021Z,101162.31
2022-08-09T21:33:11.154Z,101163.78
2022-08-09T21:35:51.382Z,101169.06
2022-08-09T21:38:31.053Z,101165.34
2022-08-09T21:40:59.737Z,101172.00
2022-08-09T21:43:56.042Z,101174.59
2022-08-09T21:46:14.873Z,101175.63
2022-08-09T21:48:49.129Z,101167.19
2022-08-09T21:51:24.188Z,101171.63
2022-08-09T21:54:05.253Z,101169.06
2022-08-09T21:56:43.463Z,101167.47
2022-08-09T21:59:20.457Z,101164.81
2022-08-09T22:02:01.283Z,101168.50
2022-08-09T22:04:55.361Z,101169.22
2022-08-09T22:07:34.983Z,101173.75
2022-08-09T22:10:09.459Z,101175.09
2022-08-09T22:12:38.079Z,101173.94
2022-08-09T22:15:13.831Z,101172.06
2022-08-09T22:17:46.092Z,101182.31
2022-08-09T22:20:17.048Z,101170.50
2022-08-09T22:22:49.266Z,101170.03
2022-08-09T22:26:05.670Z,101172.63
2022-08-09T22:28:06.610Z,101177.91
2022-08-09T22:30:35.105Z,101177.81
2022-08-09T22:33:09.418Z,101174.75
2022-08-09T22:36:01.793Z,101173.88
2022-08-09T22:38:24.729Z,101173.97
2022-08-09T22:40:57.583Z,101179.44
2022-08-09T22:44:02.763Z,101172.19
2022-08-09T22:48:11.233Z,101166.31
2022-08-09T22:49:09.532Z,101168.47
2022-08-09T22:51:38.582Z,101172.59
2022-08-09T22:54:11.026Z,101176.91
2022-08-09T22:56:41.574Z,101183.38
2022-08-09T22:59:57.795Z,101181.84
2022-08-09T23:01:57.409Z,101185.63
2022-08-09T23:04:25.574Z,101185.38
2022-08-09T23:06:53.168Z,101188.94
2022-08-09T23:09:20.777Z,101190.66
2022-08-09T23:11:49.481Z,101193.78
2022-08-09T23:14:17.414Z,101192.00
2022-08-09T23:16:45.265Z,101193.03
2022-08-09T23:19:12.648Z,101193.81
2022-08-09T23:21:40.152Z,101197.06
2022-08-09T23:24:09.050Z,101195.03
2022-08-09T23:26:37.142Z,101199.50
2022-08-09T23:29:07.000Z,101196.59
2022-08-09T23:31:34.621Z,101193.81
2022-08-09T23:34:03.896Z,101194.56
2022-08-09T23:36:32.008Z,101186.94
2022-08-09T23:38:59.821Z,101191.69
2022-08-09T23:41:29.256Z,101186.84
2022-08-09T23:43:58.254Z,101183.13
2022-08-09T23:46:28.268Z,101185.38
2022-08-09T23:48:55.662Z,101186.28
2022-08-09T23:51:23.018Z,101182.38
2022-08-09T23:53:52.456Z,101184.13
2022-08-09T23:56:52.860Z,101190.56
2022-08-09T23:59:10.587Z,101199.91
